LFBU

Angoulême-Brie-Champniers Airport

Airport
ICAO code
LFBU
IATA Code
ANG
Summary
ICAO Region
EUR
ICAO Territory
Location

, Poitou-Charentes

Serving
Angouleme
Elevation
436 ft
Coordinates
45° 43' 45" N , 0° 13' 17" E
Metar
Observation
LFBU 012330Z AUTO 02007KT 9000 BKN016 BKN021 OVC035 06/05 Q1021
Station
BRIE CHAMPNIERS
Date/Time
2022-12-01 23:30:00
Wind direction
20°
Wind speed
07 kts
Lowest cloud amount
broken clouds
Temperature
6°C
Dew point
5°C
Humidity
93%
QNH
1021 hPa
Weather condition
n/a

Runways

Designator Length Width Surface Rops
10/28 1810 45 ASP No/No

Airport map

Aerial View

SKYbrary Partners:

Safety knowledge contributed by: